< Typhoon 198024 1981 Season Typhoon 198102 >
Typhoon 198101 (FREDA)
General InformationTrack Information on Google MapsDetailed Wind InformationList of All Images || Disaster Info.ResourceGoogle EarthGE AnimationAtom FeedGeoJSON
Detalied Best Track (Time Zone = UTC)
Year Month Day Hour Lat. Long. Pressure (hPa) Wind (kt) Class Image Chart
1981 3 12 00 6.0 168.0 1004 0 2 Image Chart
1981 3 12 06 6.5 167.3 1002 0 2 Image Chart
1981 3 12 12 7.1 166.6 998 40 3 Image Chart
1981 3 12 18 7.6 165.9 994 45 3 Image Chart
1981 3 13 00 8.0 165.3 992 45 3 Image Chart
1981 3 13 06 9.0 164.2 990 50 4 Image Chart
1981 3 13 12 9.8 163.3 990 55 4 Image Chart
1981 3 13 18 10.6 162.3 985 60 4 Image Chart
1981 3 14 00 11.6 161.9 980 60 4 Image Chart
1981 3 14 06 12.7 161.7 980 60 4 Image Chart
1981 3 14 12 13.7 161.4 975 60 4 Image Chart
1981 3 14 18 14.8 161.5 965 70 5 Image Chart
1981 3 15 00 15.5 161.9 960 70 5 Image Chart
1981 3 15 06 16.8 162.8 945 90 5 Image Chart
1981 3 15 12 18.1 163.8 945 90 5 Image Chart
1981 3 15 18 19.0 164.9 945 90 5 Image Chart
1981 3 16 00 20.0 166.0 945 90 5 Image Chart
1981 3 16 06 20.9 167.0 950 90 5 Image Chart
1981 3 16 12 21.9 168.0 955 85 5 Image Chart
1981 3 16 18 23.0 169.0 960 75 5 Image Chart
1981 3 17 00 24.0 170.0 960 70 5 Image Chart
1981 3 17 06 25.3 171.1 965 60 4 Image Chart
1981 3 17 12 26.6 172.5 970 50 4 Image Chart
1981 3 17 18 27.8 174.2 970 45 3 Image Chart
1981 3 18 00 29.0 176.0 975 45 3 Image Chart
1981 3 18 06 31.0 178.0 980 45 3 Image Chart
Japan Meteorological Agency Best Track Data | Correction Date : 1992-10-21
< Typhoon 198024 1981 Season Typhoon 198102 >

Help